sensor_id;sensor_type;location;lat;lon;timestamp;P1;durP1;ratioP1;P2;durP2;ratioP2
19343;SDS011;9808;52.402;16.678;2022-12-18T00:02:10;59.63;;;18.20;;
19343;SDS011;9808;52.402;16.678;2022-12-18T00:04:37;60.00;;;18.40;;
19343;SDS011;9808;52.402;16.678;2022-12-18T00:07:04;67.77;;;19.53;;
19343;SDS011;9808;52.402;16.678;2022-12-18T00:09:32;57.53;;;18.77;;
19343;SDS011;9808;52.402;16.678;2022-12-18T00:12:05;56.43;;;17.30;;
19343;SDS011;9808;52.402;16.678;2022-12-18T00:14:40;67.93;;;21.67;;
19343;SDS011;9808;52.402;16.678;2022-12-18T00:17:09;80.33;;;21.60;;
19343;SDS011;9808;52.402;16.678;2022-12-18T00:19:36;62.30;;;20.60;;
19343;SDS011;9808;52.402;16.678;2022-12-18T00:22:03;69.93;;;21.30;;
19343;SDS011;9808;52.402;16.678;2022-12-18T00:24:32;57.17;;;19.53;;
19343;SDS011;9808;52.402;16.678;2022-12-18T00:26:59;69.60;;;20.80;;
19343;SDS011;9808;52.402;16.678;2022-12-18T00:29:26;58.30;;;19.37;;
19343;SDS011;9808;52.402;16.678;2022-12-18T00:31:53;57.13;;;19.23;;
19343;SDS011;9808;52.402;16.678;2022-12-18T00:34:20;68.87;;;19.87;;
19343;SDS011;9808;52.402;16.678;2022-12-18T00:36:48;58.23;;;19.10;;
19343;SDS011;9808;52.402;16.678;2022-12-18T00:39:15;60.23;;;19.63;;
19343;SDS011;9808;52.402;16.678;2022-12-18T00:41:42;60.07;;;20.17;;
19343;SDS011;9808;52.402;16.678;2022-12-18T00:44:28;61.60;;;18.77;;
19343;SDS011;9808;52.402;16.678;2022-12-18T00:46:55;56.10;;;18.33;;
19343;SDS011;9808;52.402;16.678;2022-12-18T00:49:22;59.37;;;19.40;;
19343;SDS011;9808;52.402;16.678;2022-12-18T00:51:49;68.97;;;20.67;;
19343;SDS011;9808;52.402;16.678;2022-12-18T00:54:16;62.70;;;20.37;;
19343;SDS011;9808;52.402;16.678;2022-12-18T00:56:44;69.67;;;20.87;;
19343;SDS011;9808;52.402;16.678;2022-12-18T00:59:15;63.87;;;21.27;;
19343;SDS011;9808;52.402;16.678;2022-12-18T01:01:43;62.77;;;21.17;;
19343;SDS011;9808;52.402;16.678;2022-12-18T01:04:11;61.20;;;20.00;;
19343;SDS011;9808;52.402;16.678;2022-12-18T01:06:38;71.60;;;21.70;;
19343;SDS011;9808;52.402;16.678;2022-12-18T01:09:05;65.07;;;20.77;;
19343;SDS011;9808;52.402;16.678;2022-12-18T01:11:32;63.27;;;21.57;;
19343;SDS011;9808;52.402;16.678;2022-12-18T01:13:59;71.80;;;19.73;;
19343;SDS011;9808;52.402;16.678;2022-12-18T01:16:27;58.23;;;18.77;;
19343;SDS011;9808;52.402;16.678;2022-12-18T01:18:54;65.23;;;20.07;;
19343;SDS011;9808;52.402;16.678;2022-12-18T01:21:21;62.50;;;19.97;;
19343;SDS011;9808;52.402;16.678;2022-12-18T01:23:55;65.30;;;20.07;;
19343;SDS011;9808;52.402;16.678;2022-12-18T01:26:24;71.00;;;22.63;;
19343;SDS011;9808;52.402;16.678;2022-12-18T01:28:51;64.00;;;22.53;;
19343;SDS011;9808;52.402;16.678;2022-12-18T01:31:20;64.83;;;20.63;;
19343;SDS011;9808;52.402;16.678;2022-12-18T01:33:47;57.23;;;21.83;;
19343;SDS011;9808;52.402;16.678;2022-12-18T01:36:15;55.53;;;18.67;;
19343;SDS011;9808;52.402;16.678;2022-12-18T01:38:43;58.30;;;19.23;;
19343;SDS011;9808;52.402;16.678;2022-12-18T01:41:10;57.87;;;19.77;;
19343;SDS011;9808;52.402;16.678;2022-12-18T01:43:41;61.10;;;20.20;;
19343;SDS011;9808;52.402;16.678;2022-12-18T01:46:08;64.47;;;20.30;;
19343;SDS011;9808;52.402;16.678;2022-12-18T01:48:35;62.73;;;20.73;;
19343;SDS011;9808;52.402;16.678;2022-12-18T01:51:03;64.20;;;18.80;;
19343;SDS011;9808;52.402;16.678;2022-12-18T01:53:31;71.53;;;22.40;;
19343;SDS011;9808;52.402;16.678;2022-12-18T01:55:58;69.87;;;20.50;;
19343;SDS011;9808;52.402;16.678;2022-12-18T01:58:30;72.87;;;23.07;;
19343;SDS011;9808;52.402;16.678;2022-12-18T02:00:59;64.03;;;21.50;;
19343;SDS011;9808;52.402;16.678;2022-12-18T02:03:26;68.10;;;21.00;;
19343;SDS011;9808;52.402;16.678;2022-12-18T02:05:57;63.07;;;20.97;;
19343;SDS011;9808;52.402;16.678;2022-12-18T02:09:10;66.57;;;22.13;;
19343;SDS011;9808;52.402;16.678;2022-12-18T02:11:24;74.30;;;21.90;;
19343;SDS011;9808;52.402;16.678;2022-12-18T02:14:05;58.30;;;19.83;;
19343;SDS011;9808;52.402;16.678;2022-12-18T02:24:54;79.73;;;24.83;;
19343;SDS011;9808;52.402;16.678;2022-12-18T02:27:27;84.10;;;26.03;;
19343;SDS011;9808;52.402;16.678;2022-12-18T02:29:56;90.23;;;27.27;;
19343;SDS011;9808;52.402;16.678;2022-12-18T02:32:25;76.40;;;22.83;;
19343;SDS011;9808;52.402;16.678;2022-12-18T02:34:55;88.30;;;24.00;;
19343;SDS011;9808;52.402;16.678;2022-12-18T02:37:23;79.97;;;23.90;;
19343;SDS011;9808;52.402;16.678;2022-12-18T02:39:51;75.73;;;24.17;;
19343;SDS011;9808;52.402;16.678;2022-12-18T02:42:19;70.43;;;21.63;;
19343;SDS011;9808;52.402;16.678;2022-12-18T02:44:48;70.60;;;22.13;;
19343;SDS011;9808;52.402;16.678;2022-12-18T02:47:16;58.90;;;20.67;;
19343;SDS011;9808;52.402;16.678;2022-12-18T02:49:49;67.93;;;22.07;;
19343;SDS011;9808;52.402;16.678;2022-12-18T02:52:29;69.23;;;22.50;;
19343;SDS011;9808;52.402;16.678;2022-12-18T02:55:13;73.20;;;22.77;;
19343;SDS011;9808;52.402;16.678;2022-12-18T02:57:44;65.37;;;22.90;;
19343;SDS011;9808;52.402;16.678;2022-12-18T03:00:18;64.97;;;22.23;;
19343;SDS011;9808;52.402;16.678;2022-12-18T03:05:21;65.93;;;19.27;;
19343;SDS011;9808;52.402;16.678;2022-12-18T03:10:49;67.40;;;22.33;;
19343;SDS011;9808;52.402;16.678;2022-12-18T03:13:40;63.60;;;19.73;;
19343;SDS011;9808;52.402;16.678;2022-12-18T03:16:08;61.87;;;20.47;;
19343;SDS011;9808;52.402;16.678;2022-12-18T03:18:37;69.97;;;20.90;;
19343;SDS011;9808;52.402;16.678;2022-12-18T03:21:06;66.17;;;20.17;;
19343;SDS011;9808;52.402;16.678;2022-12-18T03:23:35;63.83;;;21.00;;
19343;SDS011;9808;52.402;16.678;2022-12-18T03:26:05;64.53;;;20.70;;
19343;SDS011;9808;52.402;16.678;2022-12-18T03:28:35;65.80;;;20.77;;
19343;SDS011;9808;52.402;16.678;2022-12-18T03:31:04;66.93;;;19.97;;
19343;SDS011;9808;52.402;16.678;2022-12-18T03:36:04;59.80;;;18.37;;
19343;SDS011;9808;52.402;16.678;2022-12-18T03:38:31;54.93;;;16.53;;
19343;SDS011;9808;52.402;16.678;2022-12-18T03:43:48;57.87;;;16.97;;
19343;SDS011;9808;52.402;16.678;2022-12-18T03:46:30;58.47;;;18.03;;
19343;SDS011;9808;52.402;16.678;2022-12-18T03:49:44;48.90;;;18.73;;
19343;SDS011;9808;52.402;16.678;2022-12-18T03:52:04;46.87;;;16.57;;
19343;SDS011;9808;52.402;16.678;2022-12-18T03:54:32;54.57;;;17.30;;
19343;SDS011;9808;52.402;16.678;2022-12-18T03:57:03;49.17;;;15.57;;
19343;SDS011;9808;52.402;16.678;2022-12-18T03:59:31;60.80;;;16.60;;
19343;SDS011;9808;52.402;16.678;2022-12-18T04:01:58;55.90;;;16.23;;
19343;SDS011;9808;52.402;16.678;2022-12-18T04:04:27;43.73;;;15.53;;
19343;SDS011;9808;52.402;16.678;2022-12-18T04:06:55;53.27;;;17.33;;
19343;SDS011;9808;52.402;16.678;2022-12-18T04:09:23;48.87;;;15.63;;
19343;SDS011;9808;52.402;16.678;2022-12-18T04:11:51;59.90;;;18.43;;
19343;SDS011;9808;52.402;16.678;2022-12-18T04:14:18;48.83;;;16.73;;
19343;SDS011;9808;52.402;16.678;2022-12-18T04:16:46;56.07;;;17.33;;
19343;SDS011;9808;52.402;16.678;2022-12-18T04:19:13;49.80;;;16.33;;
19343;SDS011;9808;52.402;16.678;2022-12-18T04:21:40;58.23;;;18.03;;
19343;SDS011;9808;52.402;16.678;2022-12-18T04:24:07;58.77;;;18.50;;
19343;SDS011;9808;52.402;16.678;2022-12-18T04:26:34;57.33;;;17.40;;
19343;SDS011;9808;52.402;16.678;2022-12-18T04:29:01;59.53;;;15.90;;
19343;SDS011;9808;52.402;16.678;2022-12-18T04:31:29;53.77;;;16.40;;
19343;SDS011;9808;52.402;16.678;2022-12-18T04:33:56;69.93;;;18.27;;
19343;SDS011;9808;52.402;16.678;2022-12-18T04:36:23;57.43;;;17.60;;
19343;SDS011;9808;52.402;16.678;2022-12-18T04:38:50;63.87;;;17.47;;
19343;SDS011;9808;52.402;16.678;2022-12-18T04:41:17;56.63;;;17.03;;
19343;SDS011;9808;52.402;16.678;2022-12-18T04:43:44;57.10;;;16.70;;
19343;SDS011;9808;52.402;16.678;2022-12-18T04:46:12;69.33;;;23.80;;
19343;SDS011;9808;52.402;16.678;2022-12-18T04:48:39;68.50;;;21.73;;
19343;SDS011;9808;52.402;16.678;2022-12-18T04:51:06;59.87;;;18.83;;
19343;SDS011;9808;52.402;16.678;2022-12-18T04:53:33;72.70;;;18.27;;
19343;SDS011;9808;52.402;16.678;2022-12-18T04:56:07;62.90;;;19.10;;
19343;SDS011;9808;52.402;16.678;2022-12-18T04:58:35;57.17;;;16.73;;
19343;SDS011;9808;52.402;16.678;2022-12-18T05:01:02;55.23;;;18.83;;
19343;SDS011;9808;52.402;16.678;2022-12-18T05:03:30;65.87;;;17.93;;
19343;SDS011;9808;52.402;16.678;2022-12-18T05:05:57;55.50;;;16.90;;
19343;SDS011;9808;52.402;16.678;2022-12-18T05:08:24;61.40;;;19.57;;
19343;SDS011;9808;52.402;16.678;2022-12-18T05:10:58;61.30;;;19.17;;
19343;SDS011;9808;52.402;16.678;2022-12-18T05:13:26;61.43;;;18.23;;
19343;SDS011;9808;52.402;16.678;2022-12-18T05:15:53;67.33;;;18.80;;
19343;SDS011;9808;52.402;16.678;2022-12-18T05:18:21;69.63;;;18.57;;
19343;SDS011;9808;52.402;16.678;2022-12-18T05:20:49;66.53;;;18.53;;
19343;SDS011;9808;52.402;16.678;2022-12-18T05:23:16;67.67;;;19.20;;
19343;SDS011;9808;52.402;16.678;2022-12-18T05:28:40;50.47;;;17.57;;
19343;SDS011;9808;52.402;16.678;2022-12-18T05:31:07;70.20;;;18.47;;
19343;SDS011;9808;52.402;16.678;2022-12-18T05:33:34;64.43;;;18.50;;
19343;SDS011;9808;52.402;16.678;2022-12-18T05:36:02;67.43;;;19.53;;
19343;SDS011;9808;52.402;16.678;2022-12-18T05:38:30;56.47;;;17.10;;
19343;SDS011;9808;52.402;16.678;2022-12-18T05:40:58;63.20;;;19.63;;
19343;SDS011;9808;52.402;16.678;2022-12-18T05:43:25;61.40;;;18.60;;
19343;SDS011;9808;52.402;16.678;2022-12-18T05:45:53;57.30;;;17.30;;
19343;SDS011;9808;52.402;16.678;2022-12-18T05:48:21;56.83;;;17.87;;
19343;SDS011;9808;52.402;16.678;2022-12-18T05:50:48;56.77;;;18.77;;
19343;SDS011;9808;52.402;16.678;2022-12-18T05:53:16;69.23;;;20.10;;
19343;SDS011;9808;52.402;16.678;2022-12-18T05:55:44;58.43;;;18.77;;
19343;SDS011;9808;52.402;16.678;2022-12-18T05:58:12;69.77;;;21.73;;
19343;SDS011;9808;52.402;16.678;2022-12-18T06:00:40;70.80;;;23.03;;
19343;SDS011;9808;52.402;16.678;2022-12-18T06:03:08;67.67;;;21.03;;
19343;SDS011;9808;52.402;16.678;2022-12-18T06:05:36;59.17;;;20.70;;
19343;SDS011;9808;52.402;16.678;2022-12-18T06:08:03;70.97;;;22.53;;
19343;SDS011;9808;52.402;16.678;2022-12-18T06:10:30;64.33;;;19.30;;
19343;SDS011;9808;52.402;16.678;2022-12-18T06:12:59;59.20;;;20.67;;
19343;SDS011;9808;52.402;16.678;2022-12-18T06:15:26;60.77;;;19.27;;
19343;SDS011;9808;52.402;16.678;2022-12-18T06:17:53;60.80;;;19.33;;
19343;SDS011;9808;52.402;16.678;2022-12-18T06:20:21;57.37;;;17.73;;
19343;SDS011;9808;52.402;16.678;2022-12-18T06:22:48;56.60;;;18.37;;
19343;SDS011;9808;52.402;16.678;2022-12-18T06:25:15;77.93;;;23.67;;
19343;SDS011;9808;52.402;16.678;2022-12-18T06:27:42;72.87;;;23.77;;
19343;SDS011;9808;52.402;16.678;2022-12-18T06:30:10;65.30;;;19.83;;
19343;SDS011;9808;52.402;16.678;2022-12-18T06:32:37;67.27;;;21.00;;
19343;SDS011;9808;52.402;16.678;2022-12-18T06:35:04;89.37;;;25.90;;
19343;SDS011;9808;52.402;16.678;2022-12-18T06:37:32;67.50;;;19.77;;
19343;SDS011;9808;52.402;16.678;2022-12-18T06:39:59;66.27;;;20.07;;
19343;SDS011;9808;52.402;16.678;2022-12-18T06:42:28;54.23;;;16.63;;
19343;SDS011;9808;52.402;16.678;2022-12-18T06:44:55;62.93;;;18.63;;
19343;SDS011;9808;52.402;16.678;2022-12-18T06:47:22;62.33;;;18.90;;
19343;SDS011;9808;52.402;16.678;2022-12-18T06:49:49;74.13;;;18.70;;
19343;SDS011;9808;52.402;16.678;2022-12-18T06:52:16;76.07;;;20.63;;
19343;SDS011;9808;52.402;16.678;2022-12-18T06:54:43;61.03;;;18.27;;
19343;SDS011;9808;52.402;16.678;2022-12-18T06:57:10;69.87;;;18.67;;
19343;SDS011;9808;52.402;16.678;2022-12-18T06:59:37;56.10;;;17.00;;
19343;SDS011;9808;52.402;16.678;2022-12-18T07:02:05;57.20;;;17.07;;
19343;SDS011;9808;52.402;16.678;2022-12-18T07:04:32;53.57;;;17.00;;
19343;SDS011;9808;52.402;16.678;2022-12-18T07:06:59;61.77;;;17.93;;
19343;SDS011;9808;52.402;16.678;2022-12-18T07:09:27;63.50;;;19.40;;
19343;SDS011;9808;52.402;16.678;2022-12-18T07:11:54;58.50;;;18.37;;
19343;SDS011;9808;52.402;16.678;2022-12-18T07:14:22;53.03;;;16.53;;
19343;SDS011;9808;52.402;16.678;2022-12-18T07:16:49;59.67;;;18.47;;
19343;SDS011;9808;52.402;16.678;2022-12-18T07:19:17;57.13;;;17.23;;
19343;SDS011;9808;52.402;16.678;2022-12-18T07:21:44;64.00;;;18.77;;
19343;SDS011;9808;52.402;16.678;2022-12-18T07:24:11;52.27;;;17.70;;
19343;SDS011;9808;52.402;16.678;2022-12-18T07:26:38;65.53;;;18.33;;
19343;SDS011;9808;52.402;16.678;2022-12-18T07:29:05;60.43;;;19.47;;
19343;SDS011;9808;52.402;16.678;2022-12-18T07:31:32;63.77;;;17.27;;
19343;SDS011;9808;52.402;16.678;2022-12-18T07:33:59;55.90;;;17.13;;
19343;SDS011;9808;52.402;16.678;2022-12-18T07:36:26;56.67;;;17.93;;
19343;SDS011;9808;52.402;16.678;2022-12-18T07:38:54;55.53;;;17.73;;
19343;SDS011;9808;52.402;16.678;2022-12-18T07:41:22;61.23;;;18.37;;
19343;SDS011;9808;52.402;16.678;2022-12-18T07:43:49;62.27;;;18.00;;
19343;SDS011;9808;52.402;16.678;2022-12-18T07:46:16;53.13;;;17.97;;
19343;SDS011;9808;52.402;16.678;2022-12-18T07:48:44;55.67;;;16.80;;
19343;SDS011;9808;52.402;16.678;2022-12-18T07:51:15;45.33;;;16.33;;
19343;SDS011;9808;52.402;16.678;2022-12-18T07:53:43;61.87;;;17.73;;
19343;SDS011;9808;52.402;16.678;2022-12-18T07:56:11;52.00;;;16.87;;
19343;SDS011;9808;52.402;16.678;2022-12-18T07:58:57;47.43;;;15.33;;
19343;SDS011;9808;52.402;16.678;2022-12-18T08:01:24;57.20;;;18.20;;
19343;SDS011;9808;52.402;16.678;2022-12-18T08:03:52;48.53;;;15.87;;
19343;SDS011;9808;52.402;16.678;2022-12-18T08:06:19;51.27;;;16.53;;
19343;SDS011;9808;52.402;16.678;2022-12-18T08:08:53;57.00;;;16.73;;
19343;SDS011;9808;52.402;16.678;2022-12-18T08:11:21;55.30;;;17.10;;
19343;SDS011;9808;52.402;16.678;2022-12-18T08:13:48;54.10;;;18.40;;
19343;SDS011;9808;52.402;16.678;2022-12-18T08:16:15;55.17;;;16.83;;
19343;SDS011;9808;52.402;16.678;2022-12-18T08:18:43;49.67;;;18.07;;
19343;SDS011;9808;52.402;16.678;2022-12-18T08:21:14;51.13;;;18.40;;
19343;SDS011;9808;52.402;16.678;2022-12-18T08:23:41;61.27;;;17.93;;
19343;SDS011;9808;52.402;16.678;2022-12-18T08:26:10;51.20;;;17.03;;
19343;SDS011;9808;52.402;16.678;2022-12-18T08:28:37;45.73;;;16.03;;
19343;SDS011;9808;52.402;16.678;2022-12-18T08:31:05;53.97;;;17.77;;
19343;SDS011;9808;52.402;16.678;2022-12-18T08:33:33;52.87;;;17.33;;
19343;SDS011;9808;52.402;16.678;2022-12-18T08:36:00;62.63;;;19.63;;
19343;SDS011;9808;52.402;16.678;2022-12-18T08:38:28;57.97;;;18.20;;
19343;SDS011;9808;52.402;16.678;2022-12-18T08:40:59;60.90;;;19.93;;
19343;SDS011;9808;52.402;16.678;2022-12-18T08:43:26;53.40;;;19.53;;
19343;SDS011;9808;52.402;16.678;2022-12-18T08:46:12;62.63;;;20.83;;
19343;SDS011;9808;52.402;16.678;2022-12-18T08:48:40;71.93;;;22.20;;
19343;SDS011;9808;52.402;16.678;2022-12-18T08:51:07;70.10;;;22.83;;
19343;SDS011;9808;52.402;16.678;2022-12-18T08:53:36;68.33;;;22.97;;
19343;SDS011;9808;52.402;16.678;2022-12-18T08:56:04;70.83;;;23.73;;
19343;SDS011;9808;52.402;16.678;2022-12-18T08:58:31;68.87;;;22.13;;
19343;SDS011;9808;52.402;16.678;2022-12-18T09:01:02;66.33;;;20.40;;
19343;SDS011;9808;52.402;16.678;2022-12-18T09:03:30;58.97;;;20.43;;
19343;SDS011;9808;52.402;16.678;2022-12-18T09:05:57;54.40;;;18.67;;
19343;SDS011;9808;52.402;16.678;2022-12-18T09:08:26;47.97;;;17.33;;
19343;SDS011;9808;52.402;16.678;2022-12-18T09:10:53;56.17;;;18.33;;
19343;SDS011;9808;52.402;16.678;2022-12-18T09:13:21;42.63;;;16.60;;
19343;SDS011;9808;52.402;16.678;2022-12-18T09:15:52;46.93;;;16.63;;
19343;SDS011;9808;52.402;16.678;2022-12-18T09:18:20;44.67;;;17.13;;
19343;SDS011;9808;52.402;16.678;2022-12-18T09:20:48;49.40;;;17.97;;
19343;SDS011;9808;52.402;16.678;2022-12-18T09:23:16;52.53;;;19.27;;
19343;SDS011;9808;52.402;16.678;2022-12-18T09:25:43;54.60;;;19.73;;
19343;SDS011;9808;52.402;16.678;2022-12-18T09:30:38;65.83;;;20.77;;
19343;SDS011;9808;52.402;16.678;2022-12-18T09:33:05;60.07;;;20.07;;
19343;SDS011;9808;52.402;16.678;2022-12-18T09:35:35;55.17;;;21.27;;
19343;SDS011;9808;52.402;16.678;2022-12-18T09:38:03;55.40;;;22.27;;
19343;SDS011;9808;52.402;16.678;2022-12-18T09:40:33;62.37;;;21.53;;
19343;SDS011;9808;52.402;16.678;2022-12-18T09:43:02;52.17;;;20.00;;
19343;SDS011;9808;52.402;16.678;2022-12-18T09:45:38;55.63;;;22.23;;
19343;SDS011;9808;52.402;16.678;2022-12-18T09:48:15;57.40;;;22.47;;
19343;SDS011;9808;52.402;16.678;2022-12-18T09:50:45;64.27;;;23.43;;
19343;SDS011;9808;52.402;16.678;2022-12-18T09:53:18;64.90;;;23.63;;
19343;SDS011;9808;52.402;16.678;2022-12-18T09:55:46;62.13;;;23.43;;
19343;SDS011;9808;52.402;16.678;2022-12-18T09:58:17;62.27;;;23.90;;
19343;SDS011;9808;52.402;16.678;2022-12-18T10:00:46;61.63;;;23.23;;
19343;SDS011;9808;52.402;16.678;2022-12-18T10:03:13;63.47;;;21.90;;
19343;SDS011;9808;52.402;16.678;2022-12-18T10:08:31;56.20;;;23.73;;
19343;SDS011;9808;52.402;16.678;2022-12-18T10:11:01;56.17;;;22.87;;
19343;SDS011;9808;52.402;16.678;2022-12-18T10:19:01;53.20;;;21.77;;
19343;SDS011;9808;52.402;16.678;2022-12-18T10:24:20;59.63;;;23.97;;
19343;SDS011;9808;52.402;16.678;2022-12-18T10:26:49;52.67;;;23.13;;
19343;SDS011;9808;52.402;16.678;2022-12-18T10:29:16;56.10;;;23.33;;
19343;SDS011;9808;52.402;16.678;2022-12-18T10:31:44;61.23;;;23.20;;
19343;SDS011;9808;52.402;16.678;2022-12-18T10:34:11;59.40;;;23.60;;
19343;SDS011;9808;52.402;16.678;2022-12-18T10:36:39;61.73;;;25.07;;
19343;SDS011;9808;52.402;16.678;2022-12-18T10:39:19;59.07;;;24.73;;
19343;SDS011;9808;52.402;16.678;2022-12-18T10:41:49;63.63;;;26.27;;
19343;SDS011;9808;52.402;16.678;2022-12-18T10:46:47;126.70;;;48.97;;
19343;SDS011;9808;52.402;16.678;2022-12-18T10:49:49;114.63;;;44.23;;
19343;SDS011;9808;52.402;16.678;2022-12-18T10:54:49;66.37;;;26.73;;
19343;SDS011;9808;52.402;16.678;2022-12-18T10:57:30;62.67;;;26.63;;
19343;SDS011;9808;52.402;16.678;2022-12-18T10:59:59;55.47;;;22.10;;
19343;SDS011;9808;52.402;16.678;2022-12-18T11:02:37;51.60;;;20.23;;
19343;SDS011;9808;52.402;16.678;2022-12-18T11:05:26;53.90;;;20.70;;
19343;SDS011;9808;52.402;16.678;2022-12-18T11:07:53;46.47;;;19.30;;
19343;SDS011;9808;52.402;16.678;2022-12-18T11:10:21;54.67;;;20.23;;
19343;SDS011;9808;52.402;16.678;2022-12-18T11:12:49;65.17;;;23.60;;
19343;SDS011;9808;52.402;16.678;2022-12-18T11:15:19;53.90;;;21.17;;
19343;SDS011;9808;52.402;16.678;2022-12-18T11:17:50;56.83;;;22.00;;
19343;SDS011;9808;52.402;16.678;2022-12-18T11:20:26;66.87;;;26.73;;
19343;SDS011;9808;52.402;16.678;2022-12-18T11:22:58;76.37;;;30.70;;
19343;SDS011;9808;52.402;16.678;2022-12-18T11:25:29;54.67;;;23.13;;
19343;SDS011;9808;52.402;16.678;2022-12-18T11:28:00;49.70;;;18.97;;
19343;SDS011;9808;52.402;16.678;2022-12-18T11:30:31;50.27;;;19.83;;
19343;SDS011;9808;52.402;16.678;2022-12-18T11:35:32;64.90;;;26.37;;
19343;SDS011;9808;52.402;16.678;2022-12-18T11:38:04;68.03;;;25.07;;
19343;SDS011;9808;52.402;16.678;2022-12-18T11:40:35;61.83;;;25.03;;
19343;SDS011;9808;52.402;16.678;2022-12-18T11:43:08;61.87;;;24.63;;
19343;SDS011;9808;52.402;16.678;2022-12-18T11:45:41;53.07;;;22.27;;
19343;SDS011;9808;52.402;16.678;2022-12-18T11:48:21;65.80;;;24.90;;
19343;SDS011;9808;52.402;16.678;2022-12-18T11:50:56;96.37;;;31.90;;
19343;SDS011;9808;52.402;16.678;2022-12-18T11:53:24;62.50;;;25.50;;
19343;SDS011;9808;52.402;16.678;2022-12-18T11:58:31;62.13;;;25.37;;
19343;SDS011;9808;52.402;16.678;2022-12-18T12:03:51;62.33;;;23.80;;
19343;SDS011;9808;52.402;16.678;2022-12-18T12:09:10;57.23;;;22.63;;
19343;SDS011;9808;52.402;16.678;2022-12-18T12:11:48;54.53;;;21.40;;
19343;SDS011;9808;52.402;16.678;2022-12-18T12:14:33;62.57;;;24.23;;
19343;SDS011;9808;52.402;16.678;2022-12-18T12:19:56;57.93;;;24.00;;
19343;SDS011;9808;52.402;16.678;2022-12-18T12:22:33;58.97;;;22.93;;
19343;SDS011;9808;52.402;16.678;2022-12-18T12:27:59;54.10;;;22.40;;
19343;SDS011;9808;52.402;16.678;2022-12-18T12:30:24;64.77;;;22.70;;
19343;SDS011;9808;52.402;16.678;2022-12-18T12:35:42;63.83;;;25.60;;
19343;SDS011;9808;52.402;16.678;2022-12-18T12:38:13;56.03;;;25.43;;
19343;SDS011;9808;52.402;16.678;2022-12-18T12:41:03;64.33;;;25.60;;
19343;SDS011;9808;52.402;16.678;2022-12-18T12:43:37;55.73;;;24.27;;
19343;SDS011;9808;52.402;16.678;2022-12-18T12:46:16;61.80;;;25.37;;
19343;SDS011;9808;52.402;16.678;2022-12-18T12:48:48;62.90;;;25.33;;
19343;SDS011;9808;52.402;16.678;2022-12-18T12:51:20;55.47;;;24.40;;
19343;SDS011;9808;52.402;16.678;2022-12-18T12:53:48;65.57;;;27.87;;
19343;SDS011;9808;52.402;16.678;2022-12-18T12:56:16;61.80;;;27.20;;
19343;SDS011;9808;52.402;16.678;2022-12-18T13:01:25;52.07;;;22.13;;
19343;SDS011;9808;52.402;16.678;2022-12-18T13:03:56;49.33;;;20.93;;
19343;SDS011;9808;52.402;16.678;2022-12-18T13:06:32;53.67;;;22.23;;
19343;SDS011;9808;52.402;16.678;2022-12-18T13:09:02;51.37;;;20.03;;
19343;SDS011;9808;52.402;16.678;2022-12-18T13:11:43;48.27;;;20.10;;
19343;SDS011;9808;52.402;16.678;2022-12-18T13:14:36;51.57;;;20.83;;
19343;SDS011;9808;52.402;16.678;2022-12-18T13:20:11;56.23;;;21.27;;
19343;SDS011;9808;52.402;16.678;2022-12-18T13:22:45;54.23;;;22.27;;
19343;SDS011;9808;52.402;16.678;2022-12-18T13:28:10;58.60;;;24.13;;
19343;SDS011;9808;52.402;16.678;2022-12-18T13:30:57;56.97;;;22.43;;
19343;SDS011;9808;52.402;16.678;2022-12-18T13:38:39;48.77;;;20.00;;
19343;SDS011;9808;52.402;16.678;2022-12-18T13:51:28;61.03;;;24.50;;
19343;SDS011;9808;52.402;16.678;2022-12-18T13:53:58;56.63;;;23.33;;
19343;SDS011;9808;52.402;16.678;2022-12-18T13:56:27;52.00;;;22.53;;
19343;SDS011;9808;52.402;16.678;2022-12-18T14:01:31;58.60;;;23.20;;
19343;SDS011;9808;52.402;16.678;2022-12-18T14:04:10;67.57;;;24.73;;
19343;SDS011;9808;52.402;16.678;2022-12-18T14:06:37;64.77;;;25.23;;
19343;SDS011;9808;52.402;16.678;2022-12-18T14:09:04;64.13;;;23.33;;
19343;SDS011;9808;52.402;16.678;2022-12-18T14:11:34;65.00;;;25.43;;
19343;SDS011;9808;52.402;16.678;2022-12-18T14:14:03;67.47;;;25.33;;
19343;SDS011;9808;52.402;16.678;2022-12-18T14:16:33;74.67;;;27.03;;
19343;SDS011;9808;52.402;16.678;2022-12-18T14:19:02;60.50;;;24.97;;
19343;SDS011;9808;52.402;16.678;2022-12-18T14:21:40;73.20;;;27.17;;
19343;SDS011;9808;52.402;16.678;2022-12-18T14:24:13;64.30;;;24.80;;
19343;SDS011;9808;52.402;16.678;2022-12-18T14:26:44;69.37;;;25.90;;
19343;SDS011;9808;52.402;16.678;2022-12-18T14:31:50;80.77;;;29.27;;
19343;SDS011;9808;52.402;16.678;2022-12-18T14:34:30;89.13;;;29.93;;
19343;SDS011;9808;52.402;16.678;2022-12-18T14:36:58;88.33;;;32.07;;
19343;SDS011;9808;52.402;16.678;2022-12-18T14:39:25;82.97;;;30.30;;
19343;SDS011;9808;52.402;16.678;2022-12-18T14:41:52;78.30;;;29.23;;
19343;SDS011;9808;52.402;16.678;2022-12-18T14:44:19;71.37;;;29.70;;
19343;SDS011;9808;52.402;16.678;2022-12-18T14:46:47;87.67;;;30.97;;
19343;SDS011;9808;52.402;16.678;2022-12-18T14:49:18;87.60;;;32.90;;
19343;SDS011;9808;52.402;16.678;2022-12-18T14:51:47;95.13;;;33.23;;
19343;SDS011;9808;52.402;16.678;2022-12-18T14:54:16;86.33;;;29.90;;
19343;SDS011;9808;52.402;16.678;2022-12-18T14:56:45;70.23;;;27.13;;
19343;SDS011;9808;52.402;16.678;2022-12-18T14:59:20;72.30;;;28.40;;
19343;SDS011;9808;52.402;16.678;2022-12-18T15:04:37;74.97;;;29.33;;
19343;SDS011;9808;52.402;16.678;2022-12-18T15:07:14;77.87;;;30.60;;
19343;SDS011;9808;52.402;16.678;2022-12-18T15:10:26;110.30;;;43.07;;
19343;SDS011;9808;52.402;16.678;2022-12-18T15:12:34;88.70;;;34.80;;
19343;SDS011;9808;52.402;16.678;2022-12-18T15:15:02;90.33;;;33.00;;
19343;SDS011;9808;52.402;16.678;2022-12-18T15:17:30;87.87;;;32.10;;
19343;SDS011;9808;52.402;16.678;2022-12-18T15:19:59;90.53;;;31.33;;
19343;SDS011;9808;52.402;16.678;2022-12-18T15:22:28;84.90;;;33.23;;
19343;SDS011;9808;52.402;16.678;2022-12-18T15:24:55;95.80;;;36.27;;
19343;SDS011;9808;52.402;16.678;2022-12-18T15:32:36;93.70;;;33.90;;
19343;SDS011;9808;52.402;16.678;2022-12-18T15:37:37;99.20;;;34.13;;
19343;SDS011;9808;52.402;16.678;2022-12-18T15:40:05;94.80;;;32.67;;
19343;SDS011;9808;52.402;16.678;2022-12-18T15:42:33;89.30;;;34.90;;
19343;SDS011;9808;52.402;16.678;2022-12-18T15:45:19;85.90;;;32.37;;
19343;SDS011;9808;52.402;16.678;2022-12-18T15:47:49;95.93;;;35.83;;
19343;SDS011;9808;52.402;16.678;2022-12-18T15:50:16;86.77;;;31.67;;
19343;SDS011;9808;52.402;16.678;2022-12-18T15:52:45;92.57;;;33.03;;
19343;SDS011;9808;52.402;16.678;2022-12-18T15:55:13;104.10;;;36.60;;
19343;SDS011;9808;52.402;16.678;2022-12-18T15:58:01;99.53;;;34.13;;
19343;SDS011;9808;52.402;16.678;2022-12-18T16:00:31;88.63;;;31.47;;
19343;SDS011;9808;52.402;16.678;2022-12-18T16:02:59;91.40;;;34.33;;
19343;SDS011;9808;52.402;16.678;2022-12-18T16:05:27;88.37;;;33.27;;
19343;SDS011;9808;52.402;16.678;2022-12-18T16:07:54;85.67;;;32.07;;
19343;SDS011;9808;52.402;16.678;2022-12-18T16:10:22;82.87;;;30.13;;
19343;SDS011;9808;52.402;16.678;2022-12-18T16:12:49;82.27;;;30.07;;
19343;SDS011;9808;52.402;16.678;2022-12-18T16:15:17;78.13;;;29.20;;
19343;SDS011;9808;52.402;16.678;2022-12-18T16:17:49;83.17;;;30.93;;